createdAt,value
2018-11-06T00:01:55.776Z,71.00
2018-11-06T00:04:29.238Z,78.90
2018-11-06T00:06:56.868Z,80.00
2018-11-06T00:09:24.507Z,65.60
2018-11-06T00:11:52.078Z,69.40
2018-11-06T00:14:19.751Z,79.50
2018-11-06T00:16:47.419Z,67.80
2018-11-06T00:19:14.996Z,71.30
2018-11-06T00:21:42.559Z,78.10
2018-11-06T00:24:10.154Z,82.70
2018-11-06T00:26:37.751Z,66.30
2018-11-06T00:29:05.478Z,72.30
2018-11-06T00:31:33.287Z,67.30
2018-11-06T00:34:00.827Z,77.90
2018-11-06T00:36:28.353Z,67.60
2018-11-06T00:38:55.960Z,74.10
2018-11-06T00:41:23.691Z,72.60
2018-11-06T00:43:51.410Z,74.80
2018-11-06T00:46:19.095Z,73.40
2018-11-06T00:48:46.751Z,79.30
2018-11-06T00:51:14.368Z,78.40
2018-11-06T00:53:41.914Z,83.30
2018-11-06T00:56:09.551Z,90.60
2018-11-06T00:58:37.422Z,84.70
2018-11-06T01:01:05.162Z,74.60
2018-11-06T01:03:38.647Z,66.00
2018-11-06T01:06:06.442Z,84.30
2018-11-06T01:08:34.027Z,71.20
2018-11-06T01:11:01.611Z,75.40
2018-11-06T01:13:29.330Z,79.20
2018-11-06T01:15:56.990Z,71.80
2018-11-06T01:18:24.592Z,66.40
2018-11-06T01:20:52.227Z,70.90
2018-11-06T01:23:19.819Z,73.60
2018-11-06T01:25:47.500Z,78.90
2018-11-06T01:28:15.243Z,75.30
2018-11-06T01:30:42.873Z,84.90
2018-11-06T01:33:10.465Z,88.40
2018-11-06T01:35:39.072Z,72.70
2018-11-06T01:38:06.647Z,74.80
2018-11-06T01:40:34.202Z,88.90
2018-11-06T01:43:01.778Z,73.80
2018-11-06T01:45:29.458Z,67.60
2018-11-06T01:47:57.093Z,86.00
2018-11-06T01:50:24.778Z,75.40
2018-11-06T01:52:52.317Z,69.80
2018-11-06T01:55:19.938Z,85.20
2018-11-06T01:57:47.589Z,92.40
2018-11-06T02:00:16.542Z,71.90
2018-11-06T02:02:44.243Z,74.00
2018-11-06T02:05:12.985Z,88.30
2018-11-06T02:07:41.537Z,85.80
2018-11-06T02:10:10.595Z,79.80
2018-11-06T02:12:38.243Z,77.90
2018-11-06T02:15:06.022Z,66.40
2018-11-06T02:17:33.738Z,81.60
2018-11-06T02:20:01.385Z,70.80
2018-11-06T02:22:29.032Z,67.10
2018-11-06T02:24:56.614Z,69.80
2018-11-06T02:27:24.197Z,72.30
2018-11-06T02:29:51.846Z,79.60
2018-11-06T02:32:19.698Z,86.30
2018-11-06T02:34:47.243Z,93.40
2018-11-06T02:37:14.902Z,91.90
2018-11-06T02:39:42.477Z,69.80
2018-11-06T02:42:10.150Z,72.90
2018-11-06T02:44:37.829Z,91.30
2018-11-06T02:47:05.681Z,86.80
2018-11-06T02:49:33.269Z,71.10
2018-11-06T02:52:00.895Z,71.70
2018-11-06T02:54:28.538Z,74.40
2018-11-06T02:56:56.185Z,79.00
2018-11-06T02:59:23.987Z,92.30
2018-11-06T03:01:51.942Z,91.60
2018-11-06T03:04:19.551Z,90.00
2018-11-06T03:06:47.143Z,87.60
2018-11-06T03:09:14.758Z,73.60
2018-11-06T03:11:42.451Z,82.80
2018-11-06T03:14:10.105Z,77.30
2018-11-06T03:16:37.801Z,71.10
2018-11-06T03:19:05.407Z,72.60
2018-11-06T03:21:32.958Z,78.40
2018-11-06T03:24:00.783Z,77.00
2018-11-06T03:26:28.452Z,74.70
2018-11-06T03:28:56.018Z,73.40
2018-11-06T03:31:23.671Z,77.00
2018-11-06T03:33:51.206Z,74.70
2018-11-06T03:36:18.806Z,76.00
2018-11-06T03:38:46.544Z,76.20
2018-11-06T03:41:14.215Z,77.60
2018-11-06T03:43:41.836Z,78.20
2018-11-06T03:46:09.494Z,81.00
2018-11-06T03:48:37.094Z,94.90
2018-11-06T03:51:05.682Z,93.00
2018-11-06T03:53:33.241Z,73.40
2018-11-06T03:56:00.845Z,79.10
2018-11-06T03:58:28.428Z,92.70
2018-11-06T04:00:56.048Z,76.50
2018-11-06T04:03:23.738Z,72.40
2018-11-06T04:05:51.385Z,78.30
2018-11-06T04:08:18.977Z,88.40
2018-11-06T04:10:46.522Z,90.10
2018-11-06T04:13:14.155Z,84.60
2018-11-06T04:15:41.799Z,78.60
2018-11-06T04:18:09.528Z,74.50
2018-11-06T04:20:37.127Z,77.70
2018-11-06T04:23:05.265Z,76.00
2018-11-06T04:25:32.970Z,73.60
2018-11-06T04:28:00.588Z,69.70
2018-11-06T04:30:28.190Z,73.00
2018-11-06T04:32:55.751Z,77.50
2018-11-06T04:35:23.322Z,81.40
2018-11-06T04:37:50.870Z,75.60
2018-11-06T04:40:18.530Z,75.90
2018-11-06T04:42:46.247Z,79.00
2018-11-06T04:45:13.806Z,83.10
2018-11-06T04:47:41.683Z,83.40
2018-11-06T04:50:10.788Z,89.80
2018-11-06T04:52:38.434Z,88.90
2018-11-06T04:55:07.986Z,91.50
2018-11-06T04:57:35.522Z,78.30
2018-11-06T05:00:03.838Z,78.10
2018-11-06T05:02:31.419Z,83.30
2018-11-06T05:04:59.093Z,77.10
2018-11-06T05:07:26.731Z,75.00
2018-11-06T05:09:54.320Z,73.50
2018-11-06T05:12:21.919Z,75.90
2018-11-06T05:14:49.494Z,82.50
2018-11-06T05:17:17.098Z,78.50
2018-11-06T05:19:44.758Z,78.80
2018-11-06T05:22:12.368Z,82.00
2018-11-06T05:24:40.076Z,89.00
2018-11-06T05:27:07.699Z,82.00
2018-11-06T05:29:35.266Z,86.30
2018-11-06T05:32:02.832Z,76.30
2018-11-06T05:34:30.469Z,70.20
2018-11-06T05:36:58.082Z,73.80
2018-11-06T05:39:25.719Z,78.00
2018-11-06T05:41:53.262Z,84.90
2018-11-06T05:44:20.810Z,88.90
2018-11-06T05:46:48.619Z,79.00
2018-11-06T05:49:16.326Z,82.00
2018-11-06T05:51:43.928Z,79.10
2018-11-06T05:54:11.751Z,77.90
2018-11-06T05:56:39.325Z,78.00
2018-11-06T05:59:06.889Z,76.40
2018-11-06T06:01:34.460Z,76.50
2018-11-06T06:04:02.094Z,76.50
2018-11-06T06:06:29.774Z,78.50
2018-11-06T06:08:57.317Z,77.40
2018-11-06T06:11:24.891Z,81.30
2018-11-06T06:13:52.429Z,77.80
2018-11-06T06:16:20.019Z,76.70
2018-11-06T06:18:47.658Z,78.10
2018-11-06T06:21:15.262Z,79.80
2018-11-06T06:23:42.855Z,76.00
2018-11-06T06:26:10.558Z,75.90
2018-11-06T06:28:38.299Z,78.20
2018-11-06T06:31:05.860Z,77.80
2018-11-06T06:33:33.407Z,76.10
2018-11-06T06:36:01.116Z,75.90
2018-11-06T06:38:28.723Z,76.40
2018-11-06T06:40:56.462Z,76.50
2018-11-06T06:43:24.043Z,76.90
2018-11-06T06:45:51.719Z,74.90
2018-11-06T06:48:19.424Z,74.90
2018-11-06T06:50:47.190Z,75.10
2018-11-06T06:53:14.774Z,78.10
2018-11-06T06:55:42.379Z,73.70
2018-11-06T06:58:10.158Z,72.50
2018-11-06T07:00:37.720Z,76.80
2018-11-06T07:03:05.519Z,75.80
2018-11-06T07:05:33.266Z,76.90
2018-11-06T07:08:00.805Z,76.40
2018-11-06T07:10:28.442Z,74.50
2018-11-06T07:12:56.092Z,74.30
2018-11-06T07:15:23.654Z,76.40
2018-11-06T07:17:51.701Z,75.70
2018-11-06T07:20:21.570Z,78.40
2018-11-06T07:22:49.961Z,75.80
2018-11-06T07:25:17.639Z,75.00
2018-11-06T07:27:46.287Z,75.40
2018-11-06T07:30:15.610Z,73.30
2018-11-06T07:32:43.739Z,72.70
2018-11-06T07:35:12.205Z,71.30
2018-11-06T07:37:40.475Z,74.20
2018-11-06T07:40:09.553Z,72.30
2018-11-06T07:42:37.327Z,71.90
2018-11-06T07:45:06.943Z,72.40
2018-11-06T07:47:34.610Z,71.60
2018-11-06T07:50:02.409Z,73.60
2018-11-06T07:52:30.095Z,74.30
2018-11-06T07:54:57.743Z,72.00
2018-11-06T07:57:25.508Z,70.50
2018-11-06T07:59:53.145Z,73.20
2018-11-06T08:02:20.710Z,71.70
2018-11-06T08:04:48.279Z,71.10
2018-11-06T08:07:15.866Z,70.80
2018-11-06T08:09:43.589Z,70.50
2018-11-06T08:12:11.185Z,67.80
2018-11-06T08:14:38.897Z,69.20
2018-11-06T08:17:06.570Z,70.30
2018-11-06T08:19:34.124Z,68.40
2018-11-06T08:22:01.813Z,69.40
2018-11-06T08:24:29.503Z,69.50
2018-11-06T08:26:57.209Z,70.50
2018-11-06T08:29:24.773Z,69.00
2018-11-06T08:31:52.506Z,67.80
2018-11-06T08:34:19.894Z,66.00
2018-11-06T08:36:47.593Z,66.80
2018-11-06T08:39:15.211Z,67.90
2018-11-06T08:41:42.834Z,67.10
2018-11-06T08:44:10.423Z,67.30
2018-11-06T08:46:37.982Z,67.00
2018-11-06T08:49:05.519Z,66.80
2018-11-06T08:51:33.170Z,65.00
2018-11-06T08:54:00.722Z,63.80
2018-11-06T08:56:28.453Z,65.20
2018-11-06T08:58:56.135Z,63.70
2018-11-06T09:01:23.814Z,63.10
2018-11-06T09:03:51.433Z,64.50
2018-11-06T09:06:19.065Z,66.40
2018-11-06T09:08:46.780Z,63.80
2018-11-06T09:11:14.340Z,62.30
2018-11-06T09:13:41.985Z,64.40
2018-11-06T09:16:09.726Z,64.60
2018-11-06T09:18:37.454Z,64.20
2018-11-06T09:21:05.190Z,62.70
2018-11-06T09:23:32.854Z,62.90
2018-11-06T09:26:00.513Z,64.50
2018-11-06T09:28:28.055Z,65.10
2018-11-06T09:30:55.666Z,64.20
2018-11-06T09:33:23.215Z,65.00
2018-11-06T09:35:50.820Z,65.10
2018-11-06T09:38:18.384Z,63.20
2018-11-06T09:40:45.938Z,61.40
2018-11-06T09:43:13.525Z,63.60
2018-11-06T09:45:41.098Z,62.00
2018-11-06T09:48:08.736Z,61.80
2018-11-06T09:50:36.302Z,62.50
2018-11-06T09:53:04.138Z,62.10
2018-11-06T09:55:31.702Z,62.70
2018-11-06T09:57:59.389Z,62.10
2018-11-06T10:00:27.048Z,62.70
2018-11-06T10:02:54.627Z,61.80
2018-11-06T10:05:22.259Z,60.50
2018-11-06T10:07:50.037Z,60.10
2018-11-06T10:10:18.246Z,60.00
2018-11-06T10:12:46.325Z,60.70
2018-11-06T10:15:19.622Z,61.80
2018-11-06T10:17:48.187Z,63.60
2018-11-06T10:20:16.779Z,63.50
2018-11-06T10:22:44.340Z,62.80
2018-11-06T10:25:12.027Z,62.20
2018-11-06T10:27:40.155Z,61.50
2018-11-06T10:30:10.090Z,62.40
2018-11-06T10:32:37.662Z,61.20
2018-11-06T10:35:05.619Z,60.90
2018-11-06T10:37:33.318Z,62.50
2018-11-06T10:40:01.010Z,63.60
2018-11-06T10:42:28.655Z,62.40
2018-11-06T10:44:56.382Z,61.90
2018-11-06T10:47:23.946Z,60.90
2018-11-06T10:49:51.509Z,61.50
2018-11-06T10:52:19.665Z,61.10
2018-11-06T10:54:47.246Z,60.10
2018-11-06T10:57:14.771Z,62.10
2018-11-06T10:59:42.375Z,60.40
2018-11-06T11:02:19.418Z,60.00
2018-11-06T11:04:47.218Z,60.00
2018-11-06T11:07:14.789Z,59.30
2018-11-06T11:09:42.373Z,58.50
2018-11-06T11:12:09.970Z,59.60
2018-11-06T11:14:37.628Z,61.70
2018-11-06T11:17:05.286Z,60.00
2018-11-06T11:19:32.870Z,61.20
2018-11-06T11:22:00.446Z,59.10
2018-11-06T11:24:28.002Z,58.10
2018-11-06T11:26:55.602Z,57.10
2018-11-06T11:29:23.154Z,57.20
2018-11-06T11:31:50.755Z,57.10
2018-11-06T11:34:18.355Z,57.20
2018-11-06T11:36:45.952Z,56.60
2018-11-06T11:39:13.547Z,57.00
2018-11-06T11:41:41.131Z,56.20
2018-11-06T11:44:08.748Z,56.20
2018-11-06T11:46:36.359Z,55.80
2018-11-06T11:49:04.082Z,55.70
2018-11-06T11:51:31.721Z,56.30
2018-11-06T11:53:59.473Z,58.20
2018-11-06T11:56:27.068Z,58.90
2018-11-06T11:58:54.726Z,57.90
2018-11-06T12:01:22.379Z,59.50
2018-11-06T12:03:50.007Z,58.60
2018-11-06T12:06:17.630Z,56.20
2018-11-06T12:08:45.222Z,55.50
2018-11-06T12:11:12.816Z,55.20
2018-11-06T12:13:40.399Z,55.20
2018-11-06T12:16:08.054Z,55.80
2018-11-06T12:18:35.802Z,56.10
2018-11-06T12:21:03.461Z,57.80
2018-11-06T12:23:31.112Z,57.50
2018-11-06T12:25:58.977Z,55.70
2018-11-06T12:28:26.514Z,56.50
2018-11-06T12:30:54.119Z,57.00
2018-11-06T12:33:21.775Z,57.20
2018-11-06T12:35:49.390Z,55.60
2018-11-06T12:38:16.955Z,58.10
2018-11-06T12:40:44.539Z,57.60
2018-11-06T12:43:12.136Z,57.70
2018-11-06T12:45:39.673Z,56.70
2018-11-06T12:48:07.214Z,55.60
2018-11-06T12:50:34.866Z,56.00
2018-11-06T12:53:02.603Z,56.50
2018-11-06T12:55:30.192Z,57.30
2018-11-06T12:57:57.784Z,58.00
2018-11-06T13:00:25.330Z,57.40
2018-11-06T13:02:52.950Z,57.10
2018-11-06T13:05:20.561Z,58.00
2018-11-06T13:07:48.187Z,57.10
2018-11-06T13:10:16.057Z,57.70
2018-11-06T13:12:43.934Z,57.40
2018-11-06T13:15:11.551Z,58.30
2018-11-06T13:17:39.162Z,57.60
2018-11-06T13:20:08.638Z,57.70
2018-11-06T13:22:36.418Z,57.80
2018-11-06T13:25:04.549Z,58.30
2018-11-06T13:27:32.205Z,58.00
2018-11-06T13:29:59.835Z,58.70
2018-11-06T13:32:27.465Z,59.50
2018-11-06T13:34:55.092Z,58.70
2018-11-06T13:37:22.752Z,59.50
2018-11-06T13:39:50.352Z,59.50
2018-11-06T13:42:17.968Z,59.20
2018-11-06T13:44:45.779Z,60.20
2018-11-06T13:47:13.172Z,59.40
2018-11-06T13:49:40.751Z,60.10
2018-11-06T13:52:08.465Z,60.20
2018-11-06T13:54:36.004Z,60.70
2018-11-06T13:57:03.630Z,59.50
2018-11-06T13:59:31.191Z,59.20
2018-11-06T14:01:58.739Z,60.40
2018-11-06T14:04:26.396Z,60.00
2018-11-06T14:06:53.927Z,59.50
2018-11-06T14:09:21.537Z,61.00
2018-11-06T14:11:49.099Z,60.30
2018-11-06T14:14:16.640Z,60.20
2018-11-06T14:16:44.216Z,59.90
2018-11-06T14:19:11.807Z,59.60
2018-11-06T14:21:39.398Z,60.10
2018-11-06T14:24:07.003Z,61.10
2018-11-06T14:26:34.599Z,62.20
2018-11-06T14:29:02.184Z,61.20
2018-11-06T14:31:29.822Z,60.50
2018-11-06T14:33:57.389Z,61.20
2018-11-06T14:36:25.027Z,62.10
2018-11-06T14:38:52.676Z,61.60
2018-11-06T14:41:21.182Z,61.90
2018-11-06T14:43:48.759Z,62.50
2018-11-06T14:46:16.345Z,62.30
2018-11-06T14:48:44.058Z,61.90
2018-11-06T14:51:11.551Z,62.20
2018-11-06T14:53:39.106Z,62.30
2018-11-06T14:56:06.768Z,62.90
2018-11-06T14:58:34.406Z,64.40
2018-11-06T15:01:01.995Z,62.90
2018-11-06T15:03:29.632Z,63.10
2018-11-06T15:05:57.252Z,63.50
2018-11-06T15:08:24.847Z,63.40
2018-11-06T15:10:52.454Z,63.60
2018-11-06T15:13:20.010Z,64.40
2018-11-06T15:15:47.642Z,64.10
2018-11-06T15:18:15.215Z,64.10
2018-11-06T15:20:42.804Z,63.80
2018-11-06T15:23:10.329Z,63.90
2018-11-06T15:25:37.974Z,64.80
2018-11-06T15:28:05.548Z,64.80
2018-11-06T15:30:33.175Z,65.80
2018-11-06T15:33:00.779Z,65.80
2018-11-06T15:35:28.421Z,67.30
2018-11-06T15:37:56.174Z,65.70
2018-11-06T15:40:23.839Z,65.20
2018-11-06T15:42:51.440Z,65.20
2018-11-06T15:45:19.499Z,65.70
2018-11-06T15:47:47.428Z,66.00
2018-11-06T15:50:16.289Z,65.70
2018-11-06T15:52:44.855Z,66.00
2018-11-06T15:55:12.543Z,66.90
2018-11-06T15:57:40.217Z,67.10
2018-11-06T16:00:16.075Z,66.10
2018-11-06T16:02:44.241Z,66.60
2018-11-06T16:05:11.982Z,67.60
2018-11-06T16:07:39.800Z,67.20
2018-11-06T16:10:09.691Z,67.20
2018-11-06T16:12:37.423Z,68.20
2018-11-06T16:15:06.176Z,67.90
2018-11-06T16:17:34.200Z,67.70
2018-11-06T16:20:01.838Z,68.00
2018-11-06T16:22:29.866Z,66.10
2018-11-06T16:24:57.457Z,66.00
2018-11-06T16:27:25.147Z,66.30
2018-11-06T16:29:52.762Z,66.30
2018-11-06T16:32:20.458Z,66.60
2018-11-06T16:34:48.186Z,67.40
2018-11-06T16:37:15.880Z,67.50
2018-11-06T16:39:43.479Z,67.20
2018-11-06T16:42:11.108Z,67.60
2018-11-06T16:44:38.754Z,65.70
2018-11-06T16:47:06.395Z,67.10
2018-11-06T16:49:34.022Z,67.10
2018-11-06T16:52:01.683Z,67.50
2018-11-06T16:54:29.279Z,67.20
2018-11-06T16:56:56.945Z,67.00
2018-11-06T16:59:24.528Z,66.60
2018-11-06T17:01:52.091Z,65.90
2018-11-06T17:04:19.924Z,66.00
2018-11-06T17:06:48.682Z,66.30
2018-11-06T17:09:16.498Z,66.20
2018-11-06T17:11:44.172Z,65.70
2018-11-06T17:14:12.006Z,65.30
2018-11-06T17:16:39.630Z,64.70
2018-11-06T17:19:07.937Z,64.70
2018-11-06T17:21:35.630Z,64.30
2018-11-06T17:24:03.280Z,64.10
2018-11-06T17:26:31.290Z,64.40
2018-11-06T17:28:59.061Z,64.80
2018-11-06T17:31:26.670Z,65.30
2018-11-06T17:33:54.278Z,64.90
2018-11-06T17:36:21.854Z,64.30
2018-11-06T17:38:49.461Z,64.80
2018-11-06T17:41:17.104Z,64.60
2018-11-06T17:43:44.736Z,64.80
2018-11-06T17:46:12.803Z,64.20
2018-11-06T17:48:40.454Z,64.30
2018-11-06T17:51:08.200Z,64.20
2018-11-06T17:53:35.843Z,64.50
2018-11-06T17:56:03.470Z,64.90
2018-11-06T17:58:31.083Z,65.50
2018-11-06T18:00:58.680Z,66.20
2018-11-06T18:03:26.274Z,65.30
2018-11-06T18:05:53.861Z,64.80
2018-11-06T18:08:21.425Z,64.80
2018-11-06T18:10:49.046Z,64.90
2018-11-06T18:13:16.630Z,65.90
2018-11-06T18:15:44.259Z,65.70
2018-11-06T18:18:11.978Z,66.10
2018-11-06T18:20:39.583Z,65.60
2018-11-06T18:23:07.158Z,67.30
2018-11-06T18:25:34.945Z,67.80
2018-11-06T18:28:02.422Z,67.50
2018-11-06T18:30:30.044Z,67.80
2018-11-06T18:32:57.652Z,68.00
2018-11-06T18:35:25.227Z,67.70
2018-11-06T18:37:52.835Z,67.70
2018-11-06T18:40:20.441Z,67.50
2018-11-06T18:42:48.818Z,67.70
2018-11-06T18:45:16.599Z,69.30
2018-11-06T18:47:44.438Z,68.80
2018-11-06T18:50:14.431Z,69.50
2018-11-06T18:52:43.334Z,68.30
2018-11-06T18:55:11.023Z,66.50
2018-11-06T18:57:38.643Z,67.90
2018-11-06T19:00:08.352Z,67.50
2018-11-06T19:02:35.961Z,67.90
2018-11-06T19:05:03.642Z,68.80
2018-11-06T19:07:31.273Z,68.30
2018-11-06T19:09:58.846Z,67.90
2018-11-06T19:12:26.505Z,68.70
2018-11-06T19:14:54.190Z,69.70
2018-11-06T19:17:21.740Z,70.40
2018-11-06T19:19:49.386Z,69.90
2018-11-06T19:22:16.985Z,69.70
2018-11-06T19:24:44.621Z,69.30
2018-11-06T19:27:12.251Z,68.50
2018-11-06T19:29:39.862Z,69.90
2018-11-06T19:32:07.655Z,68.10
2018-11-06T19:34:35.287Z,67.90
2018-11-06T19:37:03.131Z,68.30
2018-11-06T19:39:30.776Z,71.10
2018-11-06T19:41:58.394Z,71.40
2018-11-06T19:44:26.010Z,69.40
2018-11-06T19:46:53.643Z,68.50
2018-11-06T19:49:21.380Z,70.50
2018-11-06T19:51:49.127Z,71.60
2018-11-06T19:54:16.855Z,70.70
2018-11-06T19:56:44.489Z,70.60
2018-11-06T19:59:12.198Z,70.30
2018-11-06T20:01:39.952Z,69.80
2018-11-06T20:04:07.686Z,70.60
2018-11-06T20:06:36.491Z,71.20
2018-11-06T20:09:06.539Z,71.20
2018-11-06T20:11:34.333Z,70.30
2018-11-06T20:14:01.930Z,71.10
2018-11-06T20:16:29.650Z,70.00
2018-11-06T20:18:57.434Z,69.50
2018-11-06T20:21:25.128Z,68.10
2018-11-06T20:23:52.793Z,67.70
2018-11-06T20:26:20.434Z,68.90
2018-11-06T20:28:48.132Z,70.40
2018-11-06T20:31:15.736Z,70.20
2018-11-06T20:33:43.734Z,69.00
2018-11-06T20:36:11.207Z,68.90
2018-11-06T20:38:38.912Z,68.60
2018-11-06T20:41:06.757Z,69.20
2018-11-06T20:43:34.334Z,69.80
2018-11-06T20:46:02.005Z,71.00
2018-11-06T20:48:29.667Z,71.50
2018-11-06T20:50:57.387Z,72.70
2018-11-06T20:53:25.026Z,73.00
2018-11-06T20:55:52.682Z,70.50
2018-11-06T20:58:20.346Z,69.00
2018-11-06T21:00:47.959Z,69.30
2018-11-06T21:03:15.647Z,72.00
2018-11-06T21:05:43.394Z,72.50
2018-11-06T21:08:11.110Z,74.20
2018-11-06T21:10:38.837Z,72.60
2018-11-06T21:13:06.545Z,70.30
2018-11-06T21:15:34.199Z,69.50
2018-11-06T21:18:02.008Z,70.20
2018-11-06T21:20:29.650Z,71.80
2018-11-06T21:22:57.269Z,71.00
2018-11-06T21:25:24.970Z,70.90
2018-11-06T21:27:52.555Z,71.10
2018-11-06T21:30:20.751Z,72.10
2018-11-06T21:32:49.525Z,73.70
2018-11-06T21:35:17.100Z,71.20
2018-11-06T21:37:44.730Z,71.00
2018-11-06T21:40:13.950Z,69.80
2018-11-06T21:42:42.118Z,72.90
2018-11-06T21:45:10.892Z,73.10
2018-11-06T21:47:38.805Z,73.20
2018-11-06T21:50:08.164Z,68.70
2018-11-06T21:52:35.822Z,79.30
2018-11-06T21:55:04.170Z,77.50
2018-11-06T21:57:31.875Z,73.60
2018-11-06T21:59:59.507Z,65.00
2018-11-06T22:02:27.121Z,68.10
2018-11-06T22:04:54.750Z,70.40
2018-11-06T22:07:22.357Z,66.60
2018-11-06T22:09:50.012Z,69.90
2018-11-06T22:12:17.692Z,61.00
2018-11-06T22:14:45.277Z,63.00
2018-11-06T22:17:13.143Z,66.30
2018-11-06T22:19:40.899Z,73.90
2018-11-06T22:22:08.609Z,73.50
2018-11-06T22:24:36.186Z,73.00
2018-11-06T22:27:03.866Z,70.90
2018-11-06T22:29:31.764Z,67.90
2018-11-06T22:31:59.370Z,64.60
2018-11-06T22:34:26.977Z,60.10
2018-11-06T22:36:54.568Z,68.10
2018-11-06T22:39:22.219Z,72.00
2018-11-06T22:41:49.833Z,63.40
2018-11-06T22:44:17.423Z,71.90
2018-11-06T22:46:45.052Z,63.70
2018-11-06T22:49:13.224Z,64.60
2018-11-06T22:51:40.889Z,76.20
2018-11-06T22:54:08.557Z,73.80
2018-11-06T22:56:36.158Z,70.70
2018-11-06T22:59:03.722Z,65.80
2018-11-06T23:01:31.342Z,70.50
2018-11-06T23:03:59.018Z,65.40
2018-11-06T23:06:26.758Z,62.20
2018-11-06T23:08:54.322Z,69.90
2018-11-06T23:11:22.025Z,64.20
2018-11-06T23:13:49.624Z,73.10
2018-11-06T23:16:17.233Z,75.80
2018-11-06T23:18:44.787Z,67.70
2018-11-06T23:21:12.383Z,73.40
2018-11-06T23:23:40.034Z,67.80
2018-11-06T23:26:07.732Z,64.00
2018-11-06T23:28:35.322Z,71.10
2018-11-06T23:31:02.931Z,73.40
2018-11-06T23:33:30.514Z,66.30
2018-11-06T23:35:58.122Z,68.30
2018-11-06T23:38:25.732Z,71.70
2018-11-06T23:40:53.391Z,70.10
2018-11-06T23:43:21.090Z,77.30
2018-11-06T23:45:48.746Z,79.70
2018-11-06T23:48:16.309Z,72.80
2018-11-06T23:50:43.902Z,67.40
2018-11-06T23:53:11.540Z,73.40
2018-11-06T23:55:39.110Z,73.80
2018-11-06T23:58:06.698Z,74.40
